Time;durP1;ratioP1;P1;durP2;ratioP2;P2;SDS_P1;SDS_P2;PMS_P1;PMS_P2;Temp;Humidity;BMP_temperature;BMP_pressure;BME280_temperature;BME280_humidity;BME280_pressure;Samples;Min_cycle;Max_cycle;Signal;HPM_P1;HPM_P2
2023/02/10 00:01:27;;;;;;;;;142.33;127.67;;;;;5.41;57.87;103621.56;1977947;28;4492940;-74
2023/02/10 00:02:40;;;;;;;;;141.00;125.67;;;;;5.43;57.50;103624.25;1982294;28;3725270;-74
2023/02/10 00:03:54;;;;;;;;;142.67;124.17;;;;;5.43;57.77;103616.41;1967775;28;4493897;-74
2023/02/10 00:05:07;;;;;;;;;140.67;121.67;;;;;5.43;58.04;103619.91;1974765;28;3730446;-74
2023/02/10 00:06:23;;;;;;;;;125.50;110.50;;;;;5.44;57.98;103624.28;1975507;28;4494357;-74
2023/02/10 00:07:36;;;;;;;;;147.67;128.00;;;;;5.43;58.03;103622.53;1983158;28;3732506;-74
2023/02/10 00:08:53;;;;;;;;;141.44;122.56;;;;;5.45;58.13;103622.56;1981524;28;4484599;-74
2023/02/10 00:10:05;;;;;;;;;150.67;131.33;;;;;5.46;57.79;103619.13;1989153;28;3723108;-74
2023/02/10 00:11:18;;;;;;;;;143.33;127.67;;;;;5.47;57.36;103624.41;1985155;28;3716929;-74
2023/02/10 00:12:31;;;;;;;;;139.00;126.00;;;;;5.47;57.58;103621.78;1959434;28;3721044;-74
2023/02/10 00:13:45;;;;;;;;;146.67;126.83;;;;;5.49;57.73;103616.63;1973325;28;4500171;-74
2023/02/10 00:14:57;;;;;;;;;137.33;123.67;;;;;5.48;57.94;103612.25;1959520;28;4472453;-74
2023/02/10 00:16:14;;;;;;;;;143.78;125.78;;;;;5.48;57.73;103617.47;2008277;28;4498611;-74
2023/02/10 00:17:27;;;;;;;;;147.67;126.67;;;;;5.48;58.04;103613.13;1968298;28;3724531;-74
2023/02/10 00:18:42;;;;;;;;;151.00;133.44;;;;;5.48;58.03;103615.72;1974326;28;4491858;-74
2023/02/10 00:19:54;;;;;;;;;122.80;119.20;;;;;5.49;57.72;103619.22;1978778;28;3684612;-74
2023/02/10 00:21:16;;;;;;;;;147.40;126.20;;;;;5.50;57.58;103618.41;1957810;28;3730492;-74
2023/02/10 00:22:28;;;;;;;;;153.67;134.83;;;;;5.50;57.58;103615.81;1985740;28;3716960;-74
2023/02/10 00:23:42;;;;;;;;;144.00;124.33;;;;;5.50;57.17;103610.59;1981112;28;4485610;-74
2023/02/10 00:24:55;;;;;;;;;129.83;115.67;;;;;5.50;57.78;103616.69;1983390;28;4467893;-74
2023/02/10 00:26:14;;;;;;;;;155.10;128.40;;;;;5.51;57.46;103614.94;2000322;28;4507479;-74
2023/02/10 00:27:26;;;;;;;;;149.67;133.00;;;;;5.51;56.87;103609.72;1957858;28;3725235;-74
2023/02/10 00:28:41;;;;;;;;;126.89;124.44;;;;;5.52;57.51;103616.75;1976736;28;4446102;-74
2023/02/10 00:29:56;;;;;;;;;146.89;124.78;;;;;5.54;57.45;103617.69;2007580;28;4487692;-74
2023/02/10 00:31:12;;;;;;;;;134.17;111.50;;;;;5.53;57.36;103610.69;1979723;28;4479353;-74
2023/02/10 00:32:23;;;;;;;;;164.00;139.67;;;;;5.54;57.31;103615.06;1972841;28;3714790;-74
2023/02/10 00:33:36;;;;;;;;;146.00;131.50;;;;;5.55;57.58;103615.97;1986206;28;3706808;-74
2023/02/10 00:34:50;;;;;;;;;140.67;124.11;;;;;5.55;57.64;103616.84;1996605;28;4489096;-74
2023/02/10 00:36:08;;;;;;;;;148.89;134.67;;;;;5.55;57.67;103616.84;1981700;28;4482511;-74
2023/02/10 00:37:20;;;;;;;;;140.33;125.00;;;;;5.56;57.59;103618.59;1981797;28;3699153;-74
2023/02/10 00:38:33;;;;;;;;;134.83;122.00;;;;;5.56;57.82;103615.09;1977516;28;4482437;-74
2023/02/10 00:39:46;;;;;;;;;118.50;104.00;;;;;5.55;57.61;103622.06;2007609;28;3697091;-74
2023/02/10 00:41:06;;;;;;;;;145.67;129.83;;;;;5.56;57.72;103616.00;1990636;28;4488790;-74
2023/02/10 00:42:18;;;;;;;;;145.50;129.50;;;;;5.56;57.74;103620.31;1980643;28;3706512;-74
2023/02/10 00:43:31;;;;;;;;;143.33;125.83;;;;;5.57;57.68;103616.91;1987728;28;3710648;-74
2023/02/10 00:44:45;;;;;;;;;131.33;120.33;;;;;5.57;57.75;103614.28;1992540;28;3696057;-74
2023/02/10 00:45:57;;;;;;;;;134.33;115.00;;;;;5.59;57.86;103610.00;1996912;28;3721116;-74
2023/02/10 00:47:10;;;;;;;;;137.00;117.83;;;;;5.57;57.81;103604.75;2008589;28;4483502;-74
2023/02/10 00:48:23;;;;;;;;;140.00;118.67;;;;;5.59;58.16;103610.91;2008938;28;4495990;-74
2023/02/10 00:49:36;;;;;;;;;137.83;121.00;;;;;5.59;58.39;103608.28;2009833;28;4493922;-74
2023/02/10 00:50:51;;;;;;;;;138.89;119.22;;;;;5.62;58.07;103610.13;1991807;28;4484631;-74
2023/02/10 00:52:04;;;;;;;;;141.67;122.33;;;;;5.61;57.90;103604.00;1977635;28;4500164;-74
2023/02/10 00:53:19;;;;;;;;;138.33;122.44;;;;;5.62;57.79;103608.41;1999246;28;4496435;-74
2023/02/10 00:54:31;;;;;;;;;133.33;115.00;;;;;5.63;58.16;103606.66;1974469;28;3724178;-74
2023/02/10 00:55:44;;;;;;;;;137.00;118.83;;;;;5.65;57.67;103611.94;1976503;28;4491957;-74
2023/02/10 00:56:59;;;;;;;;;135.00;117.44;;;;;5.64;57.81;103608.44;2007382;28;4480425;-74
2023/02/10 00:58:12;;;;;;;;;134.17;113.67;;;;;5.65;57.77;103614.56;1994272;28;4483487;-74
2023/02/10 00:59:26;;;;;;;;;133.67;118.17;;;;;5.66;57.90;103611.09;1991693;28;4486623;-74
2023/02/10 01:00:38;;;;;;;;;141.67;124.00;;;;;5.66;57.85;103619.81;1985303;28;3730458;-74
2023/02/10 01:01:53;;;;;;;;;132.78;116.78;;;;;5.66;57.85;103606.78;1967620;28;4477284;-74
2023/02/10 01:03:08;;;;;;;;;136.44;112.33;;;;;5.67;58.08;103611.16;1970021;28;4487696;-74
2023/02/10 01:04:21;;;;;;;;;133.00;112.67;;;;;5.68;58.03;103614.66;1984935;28;4473078;-74
2023/02/10 01:05:34;;;;;;;;;130.50;115.17;;;;;5.69;58.45;103616.44;2010957;28;4478274;-74
2023/02/10 01:06:49;;;;;;;;;136.11;119.00;;;;;5.68;58.15;103618.13;1999960;28;4484611;-74
2023/02/10 01:08:03;;;;;;;;;135.78;116.67;;;;;5.69;57.98;103613.81;1978390;28;4483517;-74
2023/02/10 01:09:18;;;;;;;;;131.56;120.89;;;;;5.69;58.29;103613.81;1976313;28;4479370;-74
2023/02/10 01:10:34;;;;;;;;;120.67;112.83;;;;;5.69;58.23;103611.22;1978621;28;4463731;-74
2023/02/10 01:11:47;;;;;;;;;131.67;119.33;;;;;5.70;57.86;103613.88;1991651;28;3711656;-74
2023/02/10 01:13:00;;;;;;;;;126.83;111.83;;;;;5.72;57.85;103616.53;1985864;28;3698269;-74
2023/02/10 01:14:13;;;;;;;;;126.83;117.67;;;;;5.72;58.09;103619.16;1983993;28;4474107;-74
2023/02/10 01:15:25;;;;;;;;;135.00;113.33;;;;;5.71;58.05;103619.97;2003107;28;4502255;-74
2023/02/10 01:16:40;;;;;;;;;128.11;115.78;;;;;5.72;57.95;103622.66;1999529;28;4466977;-74
2023/02/10 01:17:53;;;;;;;;;138.00;118.17;;;;;5.73;58.13;103623.50;1969013;28;4486607;-74
2023/02/10 01:19:09;;;;;;;;;135.22;116.33;;;;;5.74;58.33;103627.91;1994595;28;4484595;-74
2023/02/10 01:20:22;;;;;;;;;134.67;116.00;;;;;5.74;58.46;103617.47;1952396;28;3727290;-74
2023/02/10 01:21:36;;;;;;;;;130.83;118.50;;;;;5.76;58.44;103622.72;1960573;28;3712742;-74
2023/02/10 01:22:48;;;;;;;;;138.83;113.83;;;;;5.76;58.14;103620.13;1990656;28;4496032;-74
2023/02/10 01:24:02;;;;;;;;;136.83;116.00;;;;;5.77;58.47;103611.47;1999285;28;4484519;-74
2023/02/10 01:25:15;;;;;;;;;127.50;114.50;;;;;5.76;58.20;103621.03;1984725;28;4492951;-74
2023/02/10 01:26:30;;;;;;;;;128.78;112.22;;;;;5.76;58.25;103615.81;1973796;28;4484611;-74
2023/02/10 01:27:43;;;;;;;;;137.00;114.33;;;;;5.78;58.58;103614.13;1973626;28;3726260;-74
2023/02/10 01:28:55;;;;;;;;;88.00;86.00;;;;;5.79;58.55;103620.25;1982699;28;3633581;-74
2023/02/10 01:30:08;;;;;;;;;125.83;109.17;;;;;5.78;58.97;103624.56;1986040;28;4499134;-74
2023/02/10 01:31:21;;;;;;;;;135.00;116.83;;;;;5.78;58.86;103624.56;1988566;28;4485640;-74
2023/02/10 01:32:34;;;;;;;;;124.67;111.33;;;;;5.79;58.92;103620.25;1995107;28;3712714;-74
2023/02/10 01:33:50;;;;;;;;;128.67;112.33;;;;;5.79;58.67;103623.75;1979502;28;4492888;-74
2023/02/10 01:35:03;;;;;;;;;125.33;109.67;;;;;5.80;57.90;103627.25;1979810;28;3723088;-74
2023/02/10 01:36:17;;;;;;;;;126.33;113.67;;;;;5.82;58.58;103625.56;1982637;28;3715870;-74
2023/02/10 01:37:30;;;;;;;;;135.33;116.00;;;;;5.83;58.48;103624.72;1953997;28;4487724;-74
2023/02/10 01:38:45;;;;;;;;;119.33;110.00;;;;;5.84;58.58;103634.34;1985950;28;3708510;-74
2023/02/10 01:39:57;;;;;;;;;126.67;111.67;;;;;5.84;58.47;103636.94;1953411;28;3710648;-74
2023/02/10 01:41:13;;;;;;;;;134.00;115.00;;;;;5.82;58.83;103629.06;1976557;28;4484629;-74
2023/02/10 01:42:25;;;;;;;;;134.67;113.33;;;;;5.81;58.97;103624.69;1991715;28;3734621;-74
2023/02/10 01:43:55;;;;;;;;;134.50;116.17;;;;;5.82;59.22;103626.47;1986906;28;4488717;-74
2023/02/10 01:45:23;;;;;;;;;126.00;111.67;;;;;5.82;59.17;103626.47;1990094;28;3714805;-74
2023/02/10 01:46:36;;;;;;;;;126.17;112.50;;;;;5.82;59.56;103623.84;1973369;28;3722142;-74
2023/02/10 01:47:51;;;;;;;;;132.33;115.33;;;;;5.82;59.56;103628.19;1990924;28;3712719;-74
2023/02/10 01:49:10;;;;;;;;;119.00;108.83;;;;;5.80;59.88;103625.50;1989963;28;3710660;-74
2023/02/10 01:50:27;;;;;;;;;124.67;109.00;;;;;5.81;60.03;103634.22;1982580;28;3705500;-74
2023/02/10 01:51:48;;;;;;;;;126.17;109.17;;;;;5.80;60.12;103630.72;1983878;28;3715285;-74
2023/02/10 01:53:01;;;;;;;;;127.17;113.17;;;;;5.82;60.22;103630.78;1990818;28;3697109;-74
2023/02/10 01:54:19;;;;;;;;;128.67;113.00;;;;;5.81;60.25;103629.91;1991141;28;3709937;-74
2023/02/10 01:55:35;;;;;;;;;118.33;108.33;;;;;5.82;60.35;103628.19;1965783;28;3712722;-74
2023/02/10 01:56:48;;;;;;;;;127.83;112.33;;;;;5.81;60.48;103624.69;1990458;28;4487056;-74
2023/02/10 01:58:04;;;;;;;;;131.50;114.17;;;;;5.82;60.51;103630.78;1983279;28;4491887;-74
2023/02/10 01:59:17;;;;;;;;;127.33;112.00;;;;;5.81;60.67;103629.91;1984056;28;2945105;-74
2023/02/10 02:00:29;;;;;;;;;131.33;112.33;;;;;5.80;60.56;103628.09;1984529;28;3709606;-74
2023/02/10 02:01:42;;;;;;;;;132.17;115.17;;;;;5.80;60.74;103630.72;1998563;28;4487641;-74
2023/02/10 02:02:55;;;;;;;;;126.67;115.33;;;;;5.80;61.01;103629.84;2003316;28;4469977;-74
2023/02/10 02:04:08;;;;;;;;;140.67;123.33;;;;;5.80;60.95;103627.25;1982472;28;3714817;-74
2023/02/10 02:05:30;;;;;;;;;131.33;117.33;;;;;5.79;60.88;103631.56;1984296;28;4479365;-74
2023/02/10 02:06:42;;;;;;;;;129.67;113.00;;;;;5.79;61.13;103631.56;1982238;28;3713834;-74
2023/02/10 02:07:58;;;;;;;;;127.67;115.50;;;;;5.78;61.04;103624.56;1991743;28;4476231;-74
2023/02/10 02:09:10;;;;;;;;;127.33;108.00;;;;;5.78;60.96;103623.69;1983783;28;3713054;-74
2023/02/10 02:10:36;;;;;;;;;136.00;122.50;;;;;5.78;61.32;103628.91;2002572;28;4505776;-74
2023/02/10 02:12:09;;;;;;;;;132.67;115.33;;;;;5.77;61.60;103633.25;1958164;28;3709983;-74
2023/02/10 02:13:30;;;;;;;;;125.80;111.60;;;;;5.78;61.43;103634.13;1990708;28;3703340;-74
2023/02/10 02:14:51;;;;;;;;;128.00;113.33;;;;;5.77;61.60;103629.75;1967260;28;3699214;-74
2023/02/10 02:16:12;;;;;;;;;128.17;116.33;;;;;5.76;61.39;103630.56;1990431;28;3718307;-74
2023/02/10 02:17:47;;;;;;;;;124.00;108.33;;;;;5.74;61.38;103631.41;1979998;28;2949350;-74
2023/02/10 02:19:21;;;;;;;;;140.83;123.33;;;;;5.75;61.06;103629.69;1978409;28;3722295;-74
2023/02/10 02:20:42;;;;;;;;;129.67;116.33;;;;;5.74;61.43;103634.03;1984528;28;3701242;-74
2023/02/10 02:22:31;;;;;;;;;130.20;116.60;;;;;5.72;61.44;103625.25;1990099;28;3706938;-74
2023/02/10 02:24:02;;;;;;;;;128.33;107.00;;;;;5.71;61.62;103626.09;1967053;28;3724177;-74
2023/02/10 02:25:59;;;;;;;;;138.00;117.50;;;;;5.70;61.74;103628.66;1990312;28;3714798;-74
2023/02/10 02:27:17;;;;;;;;;124.00;106.00;;;;;5.71;61.53;103633.03;1972889;28;3705447;-74
2023/02/10 02:28:48;;;;;;;;;126.67;115.50;;;;;5.70;61.83;103633.88;1955688;28;3715951;-74
2023/02/10 02:30:25;;;;;;;;;135.00;107.67;;;;;5.69;62.00;103627.75;1980209;28;3726319;-74
2023/02/10 02:32:06;;;;;;;;;121.00;106.00;;;;;5.70;61.83;103631.25;1983424;28;2938812;-74
2023/02/10 02:33:27;;;;;;;;;130.33;115.33;;;;;5.70;61.64;103628.66;1944227;28;3725613;-74
2023/02/10 02:34:50;;;;;;;;;134.83;113.50;;;;;5.68;61.73;103622.50;1946049;28;3722255;-74
2023/02/10 02:36:12;;;;;;;;;129.40;116.00;;;;;5.69;61.68;103634.69;1984932;28;3713067;-74
2023/02/10 02:37:37;;;;;;;;;138.67;120.17;;;;;5.69;62.10;103626.88;1952107;28;4492971;-74
2023/02/10 02:38:49;;;;;;;;;135.67;116.67;;;;;5.69;61.68;103626.88;1982195;28;3723163;-74
2023/02/10 02:40:04;;;;;;;;;121.83;111.83;;;;;5.69;62.00;103624.25;1986860;28;4471334;-74
2023/02/10 02:41:24;;;;;;;;;135.33;116.00;;;;;5.68;61.98;103617.28;1969734;28;3723111;-74
2023/02/10 02:42:36;;;;;;;;;137.67;116.00;;;;;5.67;62.05;103621.59;1957245;28;3712734;-74
2023/02/10 02:43:52;;;;;;;;;135.89;118.11;;;;;5.68;61.99;103620.75;1993708;28;4500223;-74
2023/02/10 02:45:10;;;;;;;;;128.33;111.67;;;;;5.68;62.00;103619.88;1961408;28;3705420;-74
2023/02/10 02:46:40;;;;;;;;;129.33;112.67;;;;;5.69;62.21;103619.03;1982811;28;3732566;-74
2023/02/10 02:48:14;;;;;;;;;124.00;112.20;;;;;5.70;62.30;103618.22;1948070;28;3690844;-74
2023/02/10 02:49:32;;;;;;;;;132.33;115.50;;;;;5.69;62.42;103613.81;1947836;28;3722161;-74
2023/02/10 02:50:45;;;;;;;;;123.33;111.67;;;;;5.70;62.16;103613.00;1982914;28;3710632;-74
2023/02/10 02:52:06;;;;;;;;;131.33;116.17;;;;;5.70;62.28;103619.09;1978335;28;4470339;-74
2023/02/10 02:53:52;;;;;;;;;136.67;116.33;;;;;5.70;62.18;103613.88;1979930;28;3720030;-74
2023/02/10 02:55:31;;;;;;;;;132.83;119.00;;;;;5.70;62.48;103616.50;1957132;28;3714791;-74
2023/02/10 02:56:49;;;;;;;;;130.50;113.17;;;;;5.71;62.62;103617.34;1981947;28;3716999;-74
2023/02/10 02:58:15;;;;;;;;;124.00;114.20;;;;;5.71;62.41;103622.59;1979518;28;3702296;-74
2023/02/10 02:59:30;;;;;;;;;137.17;120.67;;;;;5.73;62.61;103628.72;1946055;28;4481458;-74
2023/02/10 03:00:44;;;;;;;;;128.00;116.33;;;;;5.72;62.73;103630.47;1967409;28;2946131;-74
2023/02/10 03:02:00;;;;;;;;;133.00;117.00;;;;;5.72;62.89;103624.38;1974913;28;3735607;-74
2023/02/10 03:03:11;;;;;;;;;132.00;117.67;;;;;5.73;62.71;103631.34;1975566;28;2947212;-74
2023/02/10 03:04:28;;;;;;;;;125.83;111.33;;;;;5.74;63.07;103625.31;1973926;28;4471360;-74
2023/02/10 03:05:41;;;;;;;;;125.67;114.00;;;;;5.76;62.88;103627.94;1976568;28;3713156;-73
2023/02/10 03:06:54;;;;;;;;;122.33;113.50;;;;;5.75;62.88;103624.47;1999088;28;4461604;-74
2023/02/10 03:08:07;;;;;;;;;131.83;113.50;;;;;5.76;63.05;103625.34;1992321;28;4483506;-74
2023/02/10 03:09:20;;;;;;;;;127.67;115.00;;;;;5.76;62.74;103621.03;1988438;28;3702343;-74
2023/02/10 03:10:33;;;;;;;;;136.67;119.67;;;;;5.76;62.89;103620.13;1983381;28;3728339;-74
2023/02/10 03:11:46;;;;;;;;;129.33;114.67;;;;;5.76;62.82;103622.72;1971646;28;4474096;-74
2023/02/10 03:12:59;;;;;;;;;127.83;116.33;;;;;5.77;62.98;103621.91;2002213;28;3694019;-74
2023/02/10 03:14:11;;;;;;;;;129.50;116.00;;;;;5.77;62.96;103624.53;1983632;28;4469977;-74
2023/02/10 03:15:24;;;;;;;;;135.00;117.67;;;;;5.78;62.81;103624.56;2002637;28;4502619;-74
2023/02/10 03:16:37;;;;;;;;;125.17;105.67;;;;;5.77;62.75;103622.81;1998739;28;4484532;-74
2023/02/10 03:17:52;;;;;;;;;132.33;117.44;;;;;5.77;62.71;103620.19;1999647;28;4475185;-74
2023/02/10 03:19:05;;;;;;;;;128.00;111.67;;;;;5.80;62.70;103632.47;1978039;28;4485558;-74
2023/02/10 03:20:18;;;;;;;;;119.67;111.00;;;;;5.80;62.96;103616.81;1986902;28;3697111;-74
2023/02/10 03:21:33;;;;;;;;;119.22;102.22;;;;;5.79;62.83;103621.13;1983704;28;4483549;-74
2023/02/10 03:22:47;;;;;;;;;119.89;108.78;;;;;5.80;63.07;103628.09;1967541;28;4467913;-74
2023/02/10 03:24:00;;;;;;;;;130.67;110.00;;;;;5.80;62.96;103628.09;1996850;28;4477248;-74
2023/02/10 03:25:13;;;;;;;;;120.00;109.83;;;;;5.82;63.03;103631.69;2002654;28;4468912;-74
2023/02/10 03:26:29;;;;;;;;;130.22;113.11;;;;;5.82;62.94;103626.47;1996237;28;4480408;-74
2023/02/10 03:27:40;;;;;;;;;112.50;109.00;;;;;5.82;63.39;103629.06;1959541;28;2570091;-74
2023/02/10 03:28:52;;;;;;;;;131.33;113.00;;;;;5.81;62.84;103626.41;1968790;28;3708525;-74
2023/02/10 03:30:06;;;;;;;;;124.83;107.00;;;;;5.82;62.79;103631.69;1976774;28;4480349;-74
2023/02/10 03:31:18;;;;;;;;;119.17;109.33;;;;;5.82;63.07;103626.47;1989090;28;4475216;-74
2023/02/10 03:32:33;;;;;;;;;125.00;112.56;;;;;5.84;63.04;103623.91;1990779;28;4479352;-74
2023/02/10 03:33:48;;;;;;;;;136.56;114.44;;;;;5.85;63.00;103618.72;1966819;28;4485633;-74
2023/02/10 03:35:01;;;;;;;;;120.50;105.00;;;;;5.85;63.22;103621.31;1964980;28;4478290;-74
2023/02/10 03:36:16;;;;;;;;;126.78;115.11;;;;;5.85;63.25;103615.25;1983212;28;4483545;-74
2023/02/10 03:37:30;;;;;;;;;122.33;111.11;;;;;5.87;63.21;103617.88;1965153;28;4475228;-74
2023/02/10 03:38:43;;;;;;;;;107.67;99.83;;;;;5.87;62.87;103613.56;1973525;28;4460650;-74
2023/02/10 03:39:56;;;;;;;;;127.50;113.17;;;;;5.89;63.17;103621.44;2006159;28;4495981;-74
2023/02/10 03:41:13;;;;;;;;;119.00;104.33;;;;;5.89;62.79;103613.59;1999871;28;4471057;-74
2023/02/10 03:42:23;;;;;;;;;118.00;100.50;;;;;5.90;62.73;103620.63;1947758;28;2581565;-74
2023/02/10 03:43:36;;;;;;;;;126.83;112.33;;;;;5.90;62.99;103620.63;1979466;28;3716948;-74
2023/02/10 03:44:48;;;;;;;;;132.67;106.33;;;;;5.90;62.97;103620.63;1994300;28;3730410;-74
2023/02/10 03:46:03;;;;;;;;;125.50;111.50;;;;;5.90;63.16;103629.31;1989224;28;4458491;-74
2023/02/10 03:47:14;;;;;;;;;121.67;106.00;;;;;5.92;63.00;103629.38;1990571;28;3712692;-74
2023/02/10 03:48:31;;;;;;;;;116.17;105.33;;;;;5.93;63.06;103631.13;2002127;28;4478367;-74
2023/02/10 03:49:42;;;;;;;;;120.33;109.00;;;;;5.94;63.02;103628.59;1981434;28;2944422;-74
2023/02/10 03:50:55;;;;;;;;;121.67;104.33;;;;;5.95;63.26;103626.88;1984039;28;4484583;-74
2023/02/10 03:52:07;;;;;;;;;122.33;107.67;;;;;5.96;62.97;103628.63;2006917;28;4485608;-74
2023/02/10 03:53:20;;;;;;;;;105.80;98.40;;;;;5.96;63.22;103632.16;2010194;28;3661675;-74
2023/02/10 03:54:33;;;;;;;;;119.33;105.33;;;;;5.97;63.42;103630.44;1978584;28;4460606;-74
2023/02/10 03:55:45;;;;;;;;;119.67;107.33;;;;;5.98;63.21;103626.97;1984675;28;3705383;-74
2023/02/10 03:56:58;;;;;;;;;118.50;103.33;;;;;5.99;63.18;103630.47;2009042;28;4459544;-74
2023/02/10 03:58:10;;;;;;;;;106.00;91.17;;;;;6.00;63.24;103632.25;1998958;28;3690892;-74
2023/02/10 03:59:23;;;;;;;;;105.00;97.67;;;;;6.01;63.04;103629.69;1974926;28;2923321;-74
2023/02/10 04:00:34;;;;;;;;;117.00;101.00;;;;;6.02;62.88;103635.78;1989952;28;2929421;-74
2023/02/10 04:01:46;;;;;;;;;85.00;64.33;;;;;6.02;63.01;103634.09;1982574;28;3650205;-74
2023/02/10 04:02:58;;;;;;;;;120.17;103.67;;;;;6.03;63.02;103638.44;1984760;28;4472051;-74
2023/02/10 04:04:11;;;;;;;;;112.00;100.50;;;;;6.03;63.71;103635.84;2002826;28;4465163;-74
2023/02/10 04:05:24;;;;;;;;;109.00;98.17;;;;;6.05;62.94;103633.28;2009353;28;4464740;-74
2023/02/10 04:06:36;;;;;;;;;104.60;92.40;;;;;6.05;63.33;103634.16;2004197;28;3679359;-74
2023/02/10 04:07:51;;;;;;;;;118.33;100.00;;;;;6.05;63.30;103626.31;1975648;28;4472068;-74
2023/02/10 04:09:04;;;;;;;;;115.17;99.83;;;;;6.07;63.34;103626.44;1972751;28;4462672;-74
2023/02/10 04:10:17;;;;;;;;;104.17;91.83;;;;;6.07;63.02;103627.28;1994094;28;3680402;-74
2023/02/10 04:11:30;;;;;;;;;111.67;97.50;;;;;6.08;63.22;103621.25;1977332;28;4467885;-74
2023/02/10 04:12:43;;;;;;;;;109.67;100.33;;;;;6.10;63.56;103630.88;1992583;28;4472075;-74
2023/02/10 04:13:55;;;;;;;;;108.33;94.17;;;;;6.10;63.15;103629.13;1991556;28;4461604;-74
2023/02/10 04:15:08;;;;;;;;;109.17;93.83;;;;;6.09;62.84;103635.19;2002126;28;3691181;-74
2023/02/10 04:16:21;;;;;;;;;114.00;95.00;;;;;6.08;63.12;103636.91;1978575;28;2572214;-74
2023/02/10 04:17:32;;;;;;;;;107.67;91.00;;;;;6.10;62.72;103638.69;1959647;28;2941253;-74
2023/02/10 04:18:44;;;;;;;;;123.00;103.67;;;;;6.10;62.72;103643.91;1988075;28;2950374;-74
2023/02/10 04:19:55;;;;;;;;;117.67;105.33;;;;;6.11;62.79;103643.06;1989356;28;2933973;-74
2023/02/10 04:21:08;;;;;;;;;112.00;97.00;;;;;6.10;62.90;103643.91;1988149;28;2933591;-74
2023/02/10 04:22:18;;;;;;;;;111.00;95.50;;;;;6.08;62.80;103639.53;1959735;28;2926327;-74
2023/02/10 04:23:31;;;;;;;;;113.80;95.60;;;;;6.09;62.94;103643.03;1976688;28;3690825;-74
2023/02/10 04:24:43;;;;;;;;;103.33;94.67;;;;;6.11;62.73;103643.06;1979440;28;3677280;-74
2023/02/10 04:25:55;;;;;;;;;108.67;95.33;;;;;6.11;62.94;103648.28;1989453;28;3691851;-74
2023/02/10 04:27:07;;;;;;;;;110.67;99.00;;;;;6.11;62.80;103646.56;1987237;28;3707463;-74
2023/02/10 04:28:22;;;;;;;;;111.11;96.78;;;;;6.12;62.76;103639.63;1998768;28;4467231;-74
2023/02/10 04:29:39;;;;;;;;;109.67;97.83;;;;;6.13;63.18;103641.38;1981862;28;3689146;-74
2023/02/10 04:30:57;;;;;;;;;97.75;88.00;;;;;6.13;63.70;103641.38;1984093;28;3653732;-74
2023/02/10 04:32:08;;;;;;;;;97.50;91.50;;;;;6.12;62.92;103637.03;1981566;28;2896089;-74
2023/02/10 04:33:20;;;;;;;;;109.20;92.60;;;;;6.13;63.01;103644.00;1965694;28;3683881;-74
2023/02/10 04:34:32;;;;;;;;;105.00;90.33;;;;;6.13;62.98;103646.63;1968871;28;3672088;-74
2023/02/10 04:35:47;;;;;;;;;97.40;89.60;;;;;6.13;62.97;103647.50;2005223;28;3652280;-74
2023/02/10 04:36:58;;;;;;;;;110.50;94.00;;;;;6.14;62.78;103651.00;1954487;28;2578412;-74
2023/02/10 04:38:10;;;;;;;;;95.40;84.00;;;;;6.13;63.26;103644.91;1981542;28;3657492;-74
2023/02/10 04:39:22;;;;;;;;;105.67;92.33;;;;;6.13;62.90;103649.22;1967173;28;3687724;-74
2023/02/10 04:40:34;;;;;;;;;106.00;92.33;;;;;6.13;62.82;103651.84;2008397;28;3689877;-74
2023/02/10 04:41:46;;;;;;;;;104.00;90.67;;;;;6.13;63.11;103649.22;1993147;28;3698089;-74
2023/02/10 04:42:59;;;;;;;;;109.17;97.00;;;;;6.14;63.24;103653.63;2005278;28;4457477;-74
2023/02/10 04:44:12;;;;;;;;;108.00;94.50;;;;;6.13;63.17;103649.22;1991950;28;3682631;-74
2023/02/10 04:45:23;;;;;;;;;102.00;91.33;;;;;6.13;63.05;103654.44;1978561;28;3681462;-74
2023/02/10 04:46:36;;;;;;;;;103.67;95.00;;;;;6.13;63.15;103663.19;2004310;28;3678364;-74
2023/02/10 04:47:47;;;;;;;;;104.00;87.50;;;;;6.13;63.10;103657.94;1988255;28;2575260;-74
2023/02/10 04:48:59;;;;;;;;;103.80;91.80;;;;;6.13;63.20;103660.56;1986255;28;3681442;-74
2023/02/10 04:50:11;;;;;;;;;101.00;94.60;;;;;6.15;62.84;103676.31;1989075;28;3683881;-74
2023/02/10 04:51:24;;;;;;;;;112.50;94.33;;;;;6.13;63.18;103665.78;1979634;28;4462642;-74
2023/02/10 04:52:37;;;;;;;;;97.25;83.75;;;;;6.14;62.88;103653.63;1998539;28;3656524;-74
2023/02/10 04:53:47;;;;;;;;;105.00;94.50;;;;;6.13;63.15;103657.06;1983046;28;2575283;-74
2023/02/10 04:54:59;;;;;;;;;101.80;90.40;;;;;6.14;63.15;103658.84;1970391;28;3674160;-74
2023/02/10 04:56:11;;;;;;;;;99.20;87.00;;;;;6.13;62.68;103657.06;1980300;28;3664816;-74
2023/02/10 04:57:23;;;;;;;;;93.00;86.20;;;;;6.13;63.10;103662.28;1981477;28;3637694;-74
2023/02/10 04:58:37;;;;;;;;;101.88;86.38;;;;;6.12;63.27;103660.53;1982537;28;3692932;-74
2023/02/10 04:59:49;;;;;;;;;100.50;88.00;;;;;6.12;62.89;103655.31;1981527;28;2574230;-74
2023/02/10 05:01:01;;;;;;;;;103.80;89.60;;;;;6.10;63.14;103657.84;1984478;28;3690865;-74
2023/02/10 05:02:13;;;;;;;;;103.50;88.33;;;;;6.12;62.98;103660.53;1978404;28;3695099;-74
2023/02/10 05:03:25;;;;;;;;;107.00;88.00;;;;;6.11;63.27;103663.97;1976672;28;2569018;-74
2023/02/10 05:04:35;;;;;;;;;105.00;91.50;;;;;6.10;63.02;103662.22;1958986;28;2573138;-74
2023/02/10 05:05:48;;;;;;;;;95.80;86.20;;;;;6.09;63.56;103656.09;1989166;28;3630392;-74
2023/02/10 05:06:59;;;;;;;;;96.50;85.00;;;;;6.10;63.42;103647.41;1977766;28;2566923;-74
2023/02/10 05:08:11;;;;;;;;;100.20;87.80;;;;;6.10;63.65;103652.63;1983425;28;3674505;-74
2023/02/10 05:09:23;;;;;;;;;94.80;87.80;;;;;6.11;63.27;103650.91;1987676;28;3633575;-74
2023/02/10 05:10:35;;;;;;;;;96.40;83.80;;;;;6.11;63.04;103645.69;1980278;28;3663082;-74
2023/02/10 05:11:49;;;;;;;;;90.25;81.13;;;;;6.11;63.49;103638.75;1978847;28;3661028;-74
2023/02/10 05:13:01;;;;;;;;;84.67;71.17;;;;;6.12;63.63;103647.47;1997921;28;3670038;-74
2023/02/10 05:14:12;;;;;;;;;88.50;80.00;;;;;6.12;63.52;103655.31;1986800;28;2897146;-74
2023/02/10 05:15:25;;;;;;;;;92.50;76.83;;;;;6.11;63.31;103663.97;1980447;28;3675181;-74
2023/02/10 05:16:37;;;;;;;;;82.50;71.00;;;;;6.12;63.44;103670.97;1983704;28;3651306;-74
2023/02/10 05:17:48;;;;;;;;;87.00;74.50;;;;;6.12;63.46;103676.19;1981405;28;2569047;-74
2023/02/10 05:19:00;;;;;;;;;82.00;72.60;;;;;6.13;63.44;103675.34;1970809;28;3663063;-74
2023/02/10 05:20:12;;;;;;;;;91.20;77.40;;;;;6.14;63.09;103669.28;1980184;28;3657501;-74
2023/02/10 05:21:24;;;;;;;;;91.40;77.40;;;;;6.16;63.13;103672.84;1986762;28;3671024;-74
2023/02/10 05:22:37;;;;;;;;;86.00;70.00;;;;;6.16;63.10;103668.50;1986926;28;3674167;-74
2023/02/10 05:23:49;;;;;;;;;82.00;62.00;;;;;6.17;63.32;103665.03;1967092;28;3638841;-74
2023/02/10 05:25:03;;;;;;;;;84.88;69.00;;;;;6.19;63.10;103665.13;1984317;28;3669014;-74
2023/02/10 05:26:14;;;;;;;;;85.40;73.20;;;;;6.19;63.04;103658.16;1983568;28;3654369;-74
2023/02/10 05:27:27;;;;;;;;;83.50;67.83;;;;;6.21;63.15;103654.69;1986756;28;3671043;-74
2023/02/10 05:28:39;;;;;;;;;82.00;65.67;;;;;6.22;62.90;103654.78;1985843;28;2898160;-74
2023/02/10 05:29:51;;;;;;;;;82.67;66.67;;;;;6.22;63.70;103662.63;1985496;28;2915962;-74
2023/02/10 05:31:04;;;;;;;;;77.50;59.50;;;;;6.24;63.54;103666.16;1980617;28;2901305;-74
2023/02/10 05:32:16;;;;;;;;;73.00;56.67;;;;;6.24;63.14;103666.16;1960876;28;3613721;-74